Terminal Aerodrome Forecast
Issued by NWS

Home | Current Version | Previous Version | Text Only | Print | Product List | Glossary On
Versions: 1 2 3 4 5 6 7 8 9 10 11 12
000
FTUS45 KRIW 192300
TAFCOD
TAF
KCOD 192322Z 2000/2024 01011KT P6SM BKN070
     FM200300 VRB06KT P6SM BKN060
     FM200900 VRB03KT P6SM FEW060
     FM202100 VRB06KT P6SM VCSH SCT060 BKN100
      AMD LTD TO CLD VIS AND WIND=

USA.gov is the U.S. government's official web portal to all federal, state and local government web resources and services.